AAL597 KMIA-MROC
Flight info
| Callsign | AAL597 |
|---|---|
| Flight time | N/A |
| Altitude | 39000 |
| Route | MAYNR3 FUNDI UM335 ALVEK UM328 SELEK UZ403 PIRAS BARRA4P |
| Aircraft | B77W/H-SDE1E2E3FGHIJ2J3J4J5M1RWXY/LB1D1 |
Departure
| Time | N/A |
|---|---|
| Airport | Miami International Airport (KMIA) |
Arrival
| Time | 2026-04-30 19:14 |
|---|---|
| Airport | Juan Santamaría International Airport (MROC) |
| Time | Latitude | Longitude | Altitude | Speed | Heading |
|---|---|---|---|---|---|
| 2026-04-30 14:37 | 25.79793 | -80.27777 | 19 ft | 0 kts | 177° |
| 2026-04-30 17:39 | 18.87423 | -82.69088 | 34939 ft | 473 kts | 194° |
| 2026-04-30 17:42 | 18.55209 | -82.76295 | 34946 ft | 473 kts | 195° |
| 2026-04-30 17:43 | 18.39156 | -82.79874 | 34945 ft | 471 kts | 195° |
| 2026-04-30 17:44 | 18.19990 | -82.84140 | 34946 ft | 467 kts | 195° |
| 2026-04-30 17:47 | 17.91372 | -82.90492 | 34933 ft | 464 kts | 195° |
| 2026-04-30 17:48 | 17.69313 | -82.95374 | 34929 ft | 463 kts | 195° |
| 2026-04-30 17:50 | 17.44149 | -83.00928 | 34925 ft | 458 kts | 195° |
| 2026-04-30 17:52 | 17.25395 | -83.05057 | 34923 ft | 458 kts | 195° |
| 2026-04-30 17:54 | 16.97480 | -83.11187 | 34924 ft | 454 kts | 195° |
| 2026-04-30 17:56 | 16.72636 | -83.16627 | 34917 ft | 455 kts | 195° |
| 2026-04-30 17:58 | 16.53981 | -83.20702 | 34911 ft | 456 kts | 194° |
| 2026-04-30 18:00 | 16.29090 | -83.26128 | 34903 ft | 457 kts | 194° |
| 2026-04-30 18:01 | 16.13480 | -83.29523 | 34902 ft | 458 kts | 194° |
| 2026-04-30 18:02 | 15.94748 | -83.33527 | 34914 ft | 458 kts | 194° |
| 2026-04-30 18:04 | 15.75966 | -83.37479 | 34920 ft | 457 kts | 194° |
| 2026-04-30 18:06 | 15.50975 | -83.42731 | 34917 ft | 458 kts | 194° |
| 2026-04-30 18:08 | 15.29061 | -83.47327 | 34894 ft | 458 kts | 193° |
| 2026-04-30 18:10 | 15.04038 | -83.52561 | 34892 ft | 457 kts | 193° |
| 2026-04-30 18:11 | 14.82112 | -83.57137 | 34896 ft | 456 kts | 194° |
| 2026-04-30 18:13 | 14.66591 | -83.60371 | 34888 ft | 454 kts | 194° |
| 2026-04-30 18:14 | 14.51040 | -83.63608 | 34887 ft | 455 kts | 194° |
| 2026-04-30 18:15 | 14.32486 | -83.67461 | 34894 ft | 450 kts | 194° |
| 2026-04-30 18:16 | 14.20170 | -83.70016 | 34889 ft | 447 kts | 194° |
| 2026-04-30 18:17 | 14.14037 | -83.71288 | 34888 ft | 450 kts | 194° |
| 2026-04-30 18:18 | 14.04857 | -83.73189 | 34882 ft | 444 kts | 195° |
| 2026-04-30 18:18 | 13.98760 | -83.74451 | 34887 ft | 447 kts | 195° |
| 2026-04-30 18:19 | 13.92618 | -83.75723 | 34877 ft | 446 kts | 194° |
| 2026-04-30 18:19 | 13.86550 | -83.76977 | 34874 ft | 447 kts | 194° |
| 2026-04-30 18:20 | 13.80396 | -83.78249 | 34864 ft | 447 kts | 194° |
| 2026-04-30 18:20 | 13.74306 | -83.79507 | 34864 ft | 446 kts | 195° |
| 2026-04-30 18:21 | 13.68207 | -83.80765 | 34868 ft | 447 kts | 194° |
| 2026-04-30 18:21 | 13.62091 | -83.82027 | 34870 ft | 445 kts | 195° |
| 2026-04-30 18:22 | 13.56001 | -83.83283 | 34869 ft | 446 kts | 195° |
| 2026-04-30 18:22 | 13.46844 | -83.85171 | 34866 ft | 446 kts | 194° |
| 2026-04-30 18:23 | 13.40743 | -83.86427 | 34870 ft | 447 kts | 195° |
| 2026-04-30 18:23 | 13.34665 | -83.87678 | 34866 ft | 446 kts | 194° |
| 2026-04-30 18:24 | 13.25486 | -83.89566 | 34868 ft | 446 kts | 194° |
| 2026-04-30 18:25 | 13.19361 | -83.90826 | 34868 ft | 446 kts | 194° |
| 2026-04-30 18:25 | 13.10199 | -83.92708 | 34868 ft | 445 kts | 195° |
| 2026-04-30 18:26 | 13.01041 | -83.94588 | 34871 ft | 447 kts | 195° |
| 2026-04-30 18:27 | 12.91867 | -83.96470 | 34866 ft | 448 kts | 194° |
| 2026-04-30 18:28 | 12.82725 | -83.98344 | 34871 ft | 446 kts | 194° |
| 2026-04-30 18:28 | 12.73584 | -84.00216 | 34872 ft | 446 kts | 194° |
| 2026-04-30 18:29 | 12.61373 | -84.02715 | 34870 ft | 445 kts | 194° |
| 2026-04-30 18:30 | 12.49283 | -84.05187 | 34859 ft | 445 kts | 194° |
| 2026-04-30 18:31 | 12.40124 | -84.07058 | 34851 ft | 445 kts | 194° |
| 2026-04-30 18:32 | 12.30986 | -84.08923 | 34849 ft | 446 kts | 194° |
| 2026-04-30 18:33 | 12.21878 | -84.10781 | 34847 ft | 444 kts | 194° |
| 2026-04-30 18:33 | 12.12793 | -84.12633 | 34848 ft | 443 kts | 194° |
| 2026-04-30 18:34 | 12.03677 | -84.14490 | 34849 ft | 444 kts | 194° |
| 2026-04-30 18:35 | 11.97601 | -84.15727 | 34850 ft | 444 kts | 194° |
| 2026-04-30 18:35 | 11.91520 | -84.16966 | 34850 ft | 445 kts | 194° |
| 2026-04-30 18:36 | 11.82440 | -84.18812 | 34863 ft | 444 kts | 194° |
| 2026-04-30 18:37 | 11.73350 | -84.20659 | 34870 ft | 444 kts | 194° |
| 2026-04-30 18:37 | 11.67294 | -84.21890 | 34869 ft | 445 kts | 194° |
| 2026-04-30 18:38 | 11.61229 | -84.23121 | 34866 ft | 445 kts | 194° |
| 2026-04-30 18:38 | 11.55201 | -84.24345 | 34869 ft | 446 kts | 194° |
| 2026-04-30 18:39 | 11.49071 | -84.25588 | 34867 ft | 446 kts | 193° |
| 2026-04-30 18:39 | 11.42956 | -84.26828 | 34879 ft | 446 kts | 193° |
| 2026-04-30 18:40 | 11.36918 | -84.28051 | 34844 ft | 442 kts | 193° |
| 2026-04-30 18:40 | 11.33946 | -84.28653 | 34466 ft | 438 kts | 193° |
| 2026-04-30 18:40 | 11.30934 | -84.29263 | 33544 ft | 442 kts | 193° |
| 2026-04-30 18:40 | 11.27883 | -84.29882 | 32320 ft | 453 kts | 193° |
| 2026-04-30 18:41 | 11.24795 | -84.30508 | 31318 ft | 460 kts | 193° |
| 2026-04-30 18:41 | 11.21680 | -84.31139 | 30606 ft | 459 kts | 193° |
| 2026-04-30 18:41 | 11.18581 | -84.31766 | 30085 ft | 454 kts | 193° |
| 2026-04-30 18:41 | 11.15457 | -84.32397 | 29517 ft | 451 kts | 193° |
| 2026-04-30 18:42 | 11.12377 | -84.33019 | 28805 ft | 451 kts | 193° |
| 2026-04-30 18:42 | 11.06185 | -84.34272 | 27262 ft | 453 kts | 193° |
| 2026-04-30 18:42 | 11.03109 | -84.34894 | 26632 ft | 451 kts | 193° |
| 2026-04-30 18:45 | 10.74945 | -84.42585 | 23194 ft | 398 kts | 200° |
| 2026-04-30 18:45 | 10.72314 | -84.43460 | 22826 ft | 396 kts | 200° |
| 2026-04-30 18:45 | 10.69687 | -84.44334 | 22422 ft | 395 kts | 200° |
| 2026-04-30 18:46 | 10.67092 | -84.45198 | 21930 ft | 395 kts | 199° |
| 2026-04-30 18:46 | 10.64473 | -84.46069 | 21268 ft | 391 kts | 199° |
| 2026-04-30 18:46 | 10.61891 | -84.46928 | 20566 ft | 386 kts | 199° |
| 2026-04-30 18:46 | 10.59440 | -84.47742 | 19911 ft | 381 kts | 199° |
| 2026-04-30 18:47 | 10.56936 | -84.48575 | 19217 ft | 377 kts | 199° |
| 2026-04-30 18:47 | 10.54437 | -84.49406 | 18517 ft | 372 kts | 199° |
| 2026-04-30 18:47 | 10.51985 | -84.50221 | 17823 ft | 368 kts | 199° |
| 2026-04-30 18:47 | 10.49562 | -84.51026 | 17142 ft | 364 kts | 198° |
| 2026-04-30 18:48 | 10.47156 | -84.51826 | 16482 ft | 361 kts | 198° |
| 2026-04-30 18:48 | 10.44770 | -84.52618 | 15818 ft | 358 kts | 198° |
| 2026-04-30 18:48 | 10.42425 | -84.53396 | 15249 ft | 352 kts | 198° |
| 2026-04-30 18:48 | 10.40109 | -84.54165 | 15049 ft | 343 kts | 198° |
| 2026-04-30 18:49 | 10.37862 | -84.54910 | 14771 ft | 338 kts | 197° |
| 2026-04-30 18:49 | 10.35638 | -84.55648 | 14365 ft | 337 kts | 197° |
| 2026-04-30 18:49 | 10.33402 | -84.56390 | 13950 ft | 337 kts | 197° |
| 2026-04-30 18:49 | 10.31183 | -84.57125 | 13573 ft | 335 kts | 197° |
| 2026-04-30 18:50 | 10.28961 | -84.57862 | 13202 ft | 334 kts | 196° |
| 2026-04-30 18:50 | 10.26746 | -84.58597 | 12836 ft | 332 kts | 196° |
| 2026-04-30 18:50 | 10.24573 | -84.59317 | 12502 ft | 329 kts | 196° |
| 2026-04-30 18:50 | 10.22408 | -84.60036 | 12439 ft | 315 kts | 196° |
| 2026-04-30 18:51 | 10.20357 | -84.60716 | 12330 ft | 304 kts | 197° |
| 2026-04-30 18:51 | 10.18344 | -84.61383 | 11998 ft | 302 kts | 197° |
| 2026-04-30 18:51 | 10.16340 | -84.61988 | 11543 ft | 303 kts | 187° |
| 2026-04-30 18:51 | 10.14232 | -84.61901 | 11079 ft | 300 kts | 161° |
| 2026-04-30 18:52 | 10.12337 | -84.61076 | 10743 ft | 295 kts | 150° |
| 2026-04-30 18:52 | 10.10551 | -84.60051 | 10421 ft | 293 kts | 148° |
| 2026-04-30 18:52 | 10.08808 | -84.59000 | 10079 ft | 291 kts | 148° |
| 2026-04-30 18:52 | 10.07067 | -84.57945 | 9990 ft | 289 kts | 148° |
| 2026-04-30 18:53 | 10.05352 | -84.56899 | 9997 ft | 292 kts | 147° |
| 2026-04-30 18:53 | 10.03596 | -84.55837 | 9997 ft | 292 kts | 148° |
| 2026-04-30 18:53 | 10.01838 | -84.54775 | 9987 ft | 291 kts | 148° |
| 2026-04-30 18:53 | 10.00094 | -84.53721 | 9989 ft | 292 kts | 147° |
| 2026-04-30 18:54 | 9.98587 | -84.52366 | 9967 ft | 289 kts | 123° |
| 2026-04-30 18:54 | 9.97636 | -84.50712 | 10005 ft | 290 kts | 116° |
| 2026-04-30 18:54 | 9.97068 | -84.49522 | 10001 ft | 287 kts | 114° |
| 2026-04-30 18:54 | 9.96679 | -84.48676 | 9906 ft | 285 kts | 114° |
| 2026-04-30 18:55 | 9.95855 | -84.46858 | 9526 ft | 286 kts | 114° |
| 2026-04-30 18:55 | 9.94260 | -84.43351 | 9400 ft | 260 kts | 114° |
| 2026-04-30 18:55 | 9.93499 | -84.41681 | 9025 ft | 264 kts | 114° |
| 2026-04-30 18:56 | 9.93022 | -84.38004 | 7788 ft | 282 kts | 73° |
| 2026-04-30 18:56 | 9.93675 | -84.36098 | 7121 ft | 294 kts | 69° |
| 2026-04-30 18:56 | 9.94410 | -84.34180 | 6317 ft | 303 kts | 68° |
| 2026-04-30 18:57 | 9.95707 | -84.30756 | 4925 ft | 293 kts | 69° |
| 2026-04-30 18:57 | 9.96410 | -84.28889 | 4433 ft | 279 kts | 69° |
| 2026-04-30 18:57 | 9.97092 | -84.27106 | 4088 ft | 262 kts | 70° |
| 2026-04-30 18:58 | 9.98275 | -84.23847 | 3474 ft | 230 kts | 71° |
| 2026-04-30 18:58 | 9.98807 | -84.22436 | 3254 ft | 207 kts | 71° |
| 2026-04-30 18:58 | 9.99298 | -84.21105 | 3872 ft | 204 kts | 71° |
| 2026-04-30 18:59 | 10.00235 | -84.18569 | 5606 ft | 202 kts | 68° |
| 2026-04-30 19:00 | 10.01797 | -84.14317 | 5667 ft | 225 kts | 80° |
| 2026-04-30 19:00 | 10.01558 | -84.12666 | 5960 ft | 250 kts | 116° |
| 2026-04-30 19:00 | 9.98497 | -84.10925 | 6545 ft | 278 kts | 181° |
| 2026-04-30 19:01 | 9.95278 | -84.12865 | 6749 ft | 281 kts | 249° |
| 2026-04-30 19:01 | 9.95002 | -84.14830 | 6656 ft | 287 kts | 281° |
| 2026-04-30 19:02 | 9.96317 | -84.18570 | 6170 ft | 279 kts | 294° |
| 2026-04-30 19:02 | 9.97773 | -84.22167 | 6036 ft | 278 kts | 292° |
| 2026-04-30 19:03 | 9.98270 | -84.26009 | 6033 ft | 280 kts | 271° |
| 2026-04-30 19:03 | 9.99396 | -84.29753 | 6013 ft | 279 kts | 283° |
| 2026-04-30 19:04 | 9.99438 | -84.33647 | 6026 ft | 280 kts | 268° |
| 2026-04-30 19:04 | 9.99259 | -84.37591 | 6020 ft | 279 kts | 268° |
| 2026-04-30 19:05 | 9.99079 | -84.41522 | 6017 ft | 280 kts | 269° |
| 2026-04-30 19:05 | 9.98965 | -84.44012 | 6019 ft | 280 kts | 268° |
| 2026-04-30 19:06 | 9.98902 | -84.45270 | 6013 ft | 280 kts | 266° |
| 2026-04-30 19:06 | 9.98849 | -84.45720 | 6003 ft | 280 kts | 260° |
| 2026-04-30 19:06 | 9.96640 | -84.48761 | 5980 ft | 273 kts | 204° |
| 2026-04-30 19:07 | 9.93147 | -84.48837 | 5948 ft | 243 kts | 153° |
| 2026-04-30 19:07 | 9.91822 | -84.47912 | 5677 ft | 238 kts | 130° |
| 2026-04-30 19:08 | 9.90762 | -84.44971 | 5247 ft | 218 kts | 83° |
| 2026-04-30 19:08 | 9.91430 | -84.42114 | 4904 ft | 202 kts | 71° |
| 2026-04-30 19:08 | 9.91890 | -84.40807 | 4749 ft | 193 kts | 69° |
| 2026-04-30 19:09 | 9.92770 | -84.38451 | 4623 ft | 165 kts | 69° |
| 2026-04-30 19:09 | 9.93199 | -84.37307 | 4638 ft | 174 kts | 69° |
| 2026-04-30 19:09 | 9.93631 | -84.36166 | 4644 ft | 177 kts | 69° |
| 2026-04-30 19:10 | 9.94486 | -84.33901 | 4647 ft | 176 kts | 69° |
| 2026-04-30 19:10 | 9.95010 | -84.32513 | 4647 ft | 176 kts | 69° |
| 2026-04-30 19:11 | 9.95129 | -84.32197 | 4648 ft | 177 kts | 69° |
| 2026-04-30 19:11 | 9.95871 | -84.30225 | 4635 ft | 171 kts | 69° |
| 2026-04-30 19:11 | 9.96334 | -84.28996 | 4404 ft | 161 kts | 69° |
| 2026-04-30 19:12 | 9.96798 | -84.27766 | 4187 ft | 155 kts | 70° |
| 2026-04-30 19:12 | 9.97236 | -84.26603 | 3969 ft | 151 kts | 70° |
| 2026-04-30 19:12 | 9.97604 | -84.25620 | 3774 ft | 151 kts | 70° |
| 2026-04-30 19:13 | 9.98340 | -84.23644 | 3354 ft | 147 kts | 71° |
| 2026-04-30 19:13 | 9.99076 | -84.21729 | 3101 ft | 133 kts | 71° |
| 2026-04-30 19:13 | 9.99354 | -84.20978 | 3103 ft | 98 kts | 70° |
| 2026-04-30 19:14 | 9.99512 | -84.20551 | 3104 ft | 16 kts | 69° |
| 2026-04-30 19:14 | 9.99560 | -84.20447 | 3105 ft | 15 kts | 49° |
| 2026-04-30 19:14 | 9.99616 | -84.20425 | 3105 ft | 6 kts | 8° |
| 2026-04-30 19:14 | 9.99649 | -84.20408 | 3105 ft | 4 kts | 41° |
| 2026-04-30 19:15 | 9.99668 | -84.20385 | 3105 ft | 4 kts | 58° |
| 2026-04-30 19:15 | 9.99698 | -84.20314 | 3105 ft | 6 kts | 71° |
| 2026-04-30 19:15 | 9.99716 | -84.20268 | 3105 ft | 7 kts | 68° |
| 2026-04-30 19:16 | 9.99737 | -84.20216 | 3105 ft | 8 kts | 68° |
| 2026-04-30 19:16 | 9.99760 | -84.20159 | 3105 ft | 6 kts | 68° |
| 2026-04-30 19:16 | 9.99774 | -84.20128 | 3106 ft | 1 kts | 47° |
| 2026-04-30 19:17 | 9.99782 | -84.20124 | 3106 ft | 0 kts | 14° |
| 2026-04-30 19:17 | 9.99791 | -84.20124 | 3106 ft | 2 kts | 353° |
| 2026-04-30 19:17 | 9.99812 | -84.20130 | 3106 ft | 2 kts | 341° |
| 2026-04-30 19:18 | 9.99830 | -84.20137 | 3106 ft | 1 kts | 340° |
| 2026-04-30 19:18 | 9.99834 | -84.20139 | 3106 ft | 0 kts | 340° |
| 2026-04-30 19:18 | 9.99840 | -84.20141 | 3106 ft | 0 kts | 340° |